KACV/ACV METAR and TAF weather

Enter ICAO airport designator
Station Type Date Time Source
KACV METAR 2021/09/27 06:12 UTC NOAA

KACV 270612Z AUTO 15005KT 10SM SCT022 OVC029 17/12 A3000 RMK AO2 T01670122


Station Type Date Time Source
KACV Decoded METAR 2021/09/27 06:12 UTC NOAA

ARCATA/EUREKA ARCATA AIRPORT, CA, United States (KACV) 40-59N 124-06W 67M
Sep 27, 2021 - 02:12 AM EDT / 2021.09.27 0612 UTC
Wind: from the SSE (150 degrees) at 6 MPH (5 KT):0
Visibility: 10 mile(s):0
Sky conditions: overcast
Temperature: 62.1 F (16.7 C)
Dew Point: 54.0 F (12.2 C)
Relative Humidity: 74%
Pressure (altimeter): 30 in. Hg (1015 hPa)
ob: KACV 270612Z AUTO 15005KT 10SM SCT022 OVC029 17/12 A3000 RMK AO2 T01670122
cycle: 6

Station Type Date Time Source
KACV TAF 2021/09/27 06:39 UTC NOAA

TAF KACV 270536Z 2706/2806 10004KT P6SM SCT020 OVC030
FM271200 15006KT 6SM -SHRA BR SCT025 OVC040
FM271800 16010KT 4SM -RA SCT015 OVC025
FM272300 25006KT P6SM -SHRA SCT025 BKN040

Example: see airport list